Purdy Station, New York
Current Conditions -  °F | °C
As of 2:53 PM on Saturday 25 Oct 2014 (Local Time) from KDXR Reporting Station
Few Clouds Few Clouds  
Wind Chill: 64°   Ceiling: Unl
Heat Index: 64°   Visibility: 10mi
Dew Point: 40°   Wind: 12mph
Humidity: 41%   Direction: 250°WSW
Pressure: 29.7"   Gusts: NA
Location:  41.3178°N, 73.6377°W
Report Text: KDXR 251853Z 25010KT 10SM FEW050 18/04 A2970 RMK AO2 SLP056 T01780044
Loading
Personal Weather Stations






























Interactive Weather Map
Tropical Storm Tracking
New forecast layout! Learn more

10-Day Weather Forecast

Advertisements
Track Severe Weather on mobile